Thompson, ND (58278)

3:26 PM CDT on September 02, 2014 (GMT -0500)
KNDGRAND8 | Change Station
CLOSE
Current Station
Personal Weather Station
Location: Grand Forks, ND
Elevation: 830 ft
Nearby Weather Stations

Elev 830 ft 47.94 °N, 97.06 °W | Updated 2 seconds ago

Partly Cloudy
Partly Cloudy
73.9 °F
Feels Like 77 °F
N
10.0
Wind Variable Wind from ENE
Gusts 10.0 mph

Today
High -- | Low -- °F
--% Chance of Precip.
Yesterday
High -- | Low -- °F
Precip. -- in
6:48 AM 8:07 PM
First Quarter, 54% visible
Pressure 29.72 in
Visibility 10.0 miles
Clouds Scattered Clouds 12000 ft
Heat Index 77 °F
Dew Point 57 °F
Humidity 55%
Rainfall 0.01 in
Snow Depth Not available.
UV 5 out of 12
Pollen 10.10 out of 12
Air Quality Not available.
Flu Activity Not available.
METAR KGFK 021953Z 20011KT 10SM SCT120 23/12 A2972 RMK AO2 SLP063 T02330122

More Conditions Fewer Conditions

Pressure 29.72 in
Visibility 10.0 miles
Clouds Scattered Clouds 12000 ft
Heat Index 77 °F
Dew Point 57 °F
Humidity 55%
Rainfall 0.01 in
Snow Depth Not available.
UV 5 out of 12
Pollen 10.10 out of 12
Air Quality Not available.
Flu Activity Not available.
METAR KGFK 021953Z 20011KT 10SM SCT120 23/12 A2972 RMK AO2 SLP063 T02330122

More Conditions Fewer Conditions

10-Day Weather Forecast

Almanac

Astronomy

Sep. 02, 2014 Rise Set
Actual Time 6:48 AM CDT 8:07 PM CDT
Civil Twilight 6:16 AM CDT 8:38 PM CDT
Nautical Twilight 5:37 AM CDT 9:17 PM CDT
Astronomical Twilight 4:55 AM CDT 9:58 PM CDT
Moon 3:04 PM CDT No Moon Set
Length of Visible Light 14h 22m
Length of Day
13h 18m
Tomorrow will be 3m 21s shorter.
First Quarter, 54% of the Moon is Illuminated
Today
First Quarter
Sep 8
Full
Sep 15
Last Quarter
Sep 24
New
Oct 1
First Quarter

Today's Extremes

State Highs State Lows

Community

WunderPhotos

Upload Photos

1,749,757 photos uploaded!

WunderBlogs® & News

By Dr. Jeff Masters
Director of Meteorology, Weather Underground
By Kari Strenfel
Meteorologist, Weather Underground
By Christopher C. Burt
Weather Historian, Weather Underground
September 2, 2014
September 2, 2014
September 2, 2014

Nearby

Snow Depth

Station Depth Elevation
No new snow has been reported.

Earthquake Activity

City Distance Mag. Time & Date
No recent earthquake activity has been reported nearby.
Minimum magnitude displayed is 2.5.

Coastal Water Temperatures

Place Temperature
No Stations Reporting

Nearby Weather Stations